createdAt,value
2023-02-08T00:01:59.420Z,22.42
2023-02-08T00:05:00.236Z,20.80
2023-02-08T00:08:02.011Z,28.17
2023-02-08T00:11:04.027Z,24.80
2023-02-08T00:14:05.974Z,29.77
2023-02-08T00:17:06.622Z,25.45
2023-02-08T00:20:08.237Z,24.05
2023-02-08T00:23:09.293Z,27.85
2023-02-08T00:26:11.117Z,29.15
2023-02-08T00:29:12.617Z,22.15
2023-02-08T00:32:13.408Z,28.35
2023-02-08T00:35:14.339Z,23.73
2023-02-08T00:38:15.446Z,27.88
2023-02-08T00:41:16.267Z,28.75
2023-02-08T00:44:17.647Z,27.58
2023-02-08T00:47:18.656Z,27.45
2023-02-08T00:50:19.468Z,26.67
2023-02-08T00:53:20.136Z,25.75
2023-02-08T00:56:21.443Z,28.90
2023-02-08T00:59:22.225Z,24.98
2023-02-08T01:02:22.964Z,26.08
2023-02-08T01:05:25.168Z,26.60
2023-02-08T01:08:25.992Z,30.05
2023-02-08T01:11:27.504Z,29.48
2023-02-08T01:14:28.484Z,31.02
2023-02-08T01:17:29.225Z,27.13
2023-02-08T01:20:30.438Z,26.42
2023-02-08T01:23:31.116Z,33.65
2023-02-08T01:26:33.571Z,22.95
2023-02-08T01:29:34.526Z,22.08
2023-02-08T01:32:35.763Z,23.05
2023-02-08T01:35:36.777Z,30.55
2023-02-08T01:38:39.838Z,25.48
2023-02-08T01:41:44.545Z,22.60
2023-02-08T01:45:24.550Z,29.02
2023-02-08T01:48:41.814Z,24.55
2023-02-08T01:51:50.481Z,28.25
2023-02-08T01:55:05.248Z,30.00
2023-02-08T01:58:10.825Z,25.38
2023-02-08T02:01:13.894Z,26.50
2023-02-08T02:04:15.759Z,26.30
2023-02-08T02:07:19.372Z,25.42
2023-02-08T02:10:29.478Z,26.42
2023-02-08T02:13:32.837Z,22.95
2023-02-08T02:16:33.955Z,28.95
2023-02-08T02:20:16.457Z,25.60
2023-02-08T02:23:56.150Z,25.45
2023-02-08T02:27:29.818Z,24.23
2023-02-08T02:31:27.936Z,27.17
2023-02-08T02:35:02.924Z,19.10
2023-02-08T02:39:03.058Z,25.30
2023-02-08T02:42:38.933Z,27.25
2023-02-08T02:45:54.705Z,22.13
2023-02-08T02:49:33.105Z,25.65
2023-02-08T02:53:18.164Z,28.20
2023-02-08T02:56:26.977Z,23.20
2023-02-08T02:59:32.114Z,26.52
2023-02-08T03:02:33.074Z,24.27
2023-02-08T03:05:34.076Z,25.67
2023-02-08T03:09:01.914Z,28.13
2023-02-08T03:12:34.631Z,25.13
2023-02-08T03:16:13.294Z,27.15
2023-02-08T03:19:37.354Z,27.83
2023-02-08T03:22:59.373Z,24.92
2023-02-08T03:26:34.415Z,24.20
2023-02-08T03:30:14.194Z,23.13
2023-02-08T03:33:26.386Z,21.80
2023-02-08T03:36:38.507Z,29.58
2023-02-08T03:39:42.580Z,24.10
2023-02-08T03:42:49.090Z,23.42
2023-02-08T03:46:03.598Z,25.53
2023-02-08T03:49:14.153Z,24.17
2023-02-08T03:52:15.614Z,25.70
2023-02-08T03:55:31.774Z,24.05
2023-02-08T03:58:43.902Z,21.48
2023-02-08T04:01:52.478Z,29.35
2023-02-08T04:04:54.902Z,25.02
2023-02-08T04:07:55.810Z,23.27
2023-02-08T04:10:56.599Z,25.30
2023-02-08T04:13:57.349Z,24.38
2023-02-08T04:16:58.023Z,26.98
2023-02-08T04:19:58.925Z,24.88
2023-02-08T04:22:59.628Z,27.63
2023-02-08T04:26:00.325Z,21.08
2023-02-08T04:29:01.539Z,23.75
2023-02-08T04:32:02.683Z,21.83
2023-02-08T04:35:04.319Z,24.58
2023-02-08T04:38:05.049Z,22.23
2023-02-08T04:41:05.956Z,21.13
2023-02-08T04:44:07.231Z,20.75
2023-02-08T04:47:08.311Z,23.08
2023-02-08T04:50:10.842Z,24.63
2023-02-08T04:53:11.890Z,18.45
2023-02-08T04:56:12.723Z,21.38
2023-02-08T04:59:13.692Z,26.75
2023-02-08T05:02:14.501Z,21.88
2023-02-08T05:05:15.356Z,23.67
2023-02-08T05:08:16.013Z,22.42
2023-02-08T05:11:25.880Z,23.35
2023-02-08T05:14:27.116Z,24.30
2023-02-08T05:17:28.403Z,27.40
2023-02-08T05:20:29.933Z,22.35
2023-02-08T05:23:32.309Z,23.20
2023-02-08T05:26:33.553Z,19.38
2023-02-08T05:29:34.761Z,23.27
2023-02-08T05:32:35.969Z,21.98
2023-02-08T05:35:36.755Z,20.38
2023-02-08T05:38:37.625Z,19.88
2023-02-08T05:41:38.993Z,22.45
2023-02-08T05:44:40.211Z,21.98
2023-02-08T05:47:40.986Z,21.45
2023-02-08T05:50:41.944Z,23.85
2023-02-08T05:53:44.246Z,22.85
2023-02-08T05:56:45.168Z,22.25
2023-02-08T05:59:45.931Z,22.35
2023-02-08T06:02:46.803Z,19.00
2023-02-08T06:05:47.690Z,22.25
2023-02-08T06:08:48.533Z,24.42
2023-02-08T06:11:49.234Z,25.52
2023-02-08T06:14:50.142Z,23.73
2023-02-08T06:17:51.322Z,21.00
2023-02-08T06:20:55.616Z,20.63
2023-02-08T06:23:56.550Z,20.00
2023-02-08T06:26:57.739Z,28.35
2023-02-08T06:29:58.671Z,23.58
2023-02-08T06:32:59.735Z,21.90
2023-02-08T06:36:00.528Z,24.55
2023-02-08T06:39:01.799Z,24.80
2023-02-08T06:42:02.550Z,22.20
2023-02-08T06:45:03.885Z,26.17
2023-02-08T06:48:05.477Z,28.83
2023-02-08T06:51:06.216Z,22.40
2023-02-08T06:54:07.652Z,18.90
2023-02-08T06:57:08.735Z,25.08
2023-02-08T07:00:10.735Z,25.25
2023-02-08T07:03:13.599Z,23.05
2023-02-08T07:06:17.190Z,26.17
2023-02-08T07:09:18.168Z,22.33
2023-02-08T07:12:18.878Z,21.15
2023-02-08T07:15:19.750Z,23.17
2023-02-08T07:18:20.910Z,21.48
2023-02-08T07:21:21.977Z,24.45
2023-02-08T07:24:24.057Z,20.10
2023-02-08T07:27:26.143Z,21.70
2023-02-08T07:30:27.092Z,23.13
2023-02-08T07:33:27.907Z,26.60
2023-02-08T07:36:28.867Z,20.52
2023-02-08T07:39:31.486Z,24.40
2023-02-08T07:42:33.749Z,26.05
2023-02-08T07:45:58.218Z,22.08
2023-02-08T07:48:58.978Z,18.50
2023-02-08T07:52:01.432Z,19.95
2023-02-08T07:55:02.491Z,20.70
2023-02-08T07:58:03.178Z,21.27
2023-02-08T08:01:16.147Z,20.58
2023-02-08T08:04:22.366Z,22.05
2023-02-08T08:07:23.030Z,27.98
2023-02-08T08:10:24.245Z,21.80
2023-02-08T08:13:25.337Z,23.67
2023-02-08T08:16:26.273Z,27.20
2023-02-08T08:19:27.013Z,23.48
2023-02-08T08:22:28.095Z,20.27
2023-02-08T08:25:29.246Z,25.20
2023-02-08T08:28:30.469Z,19.70
2023-02-08T08:31:31.604Z,21.48
2023-02-08T08:34:32.477Z,20.52
2023-02-08T08:37:34.077Z,26.77
2023-02-08T08:40:35.053Z,18.98
2023-02-08T08:43:35.831Z,19.75
2023-02-08T08:46:37.174Z,19.67
2023-02-08T08:49:38.890Z,24.27
2023-02-08T08:52:40.394Z,22.15
2023-02-08T08:55:41.289Z,19.63
2023-02-08T08:58:43.609Z,20.42
2023-02-08T09:01:44.948Z,18.95
2023-02-08T09:04:46.221Z,20.65
2023-02-08T09:07:46.947Z,19.65
2023-02-08T09:10:47.849Z,21.02
2023-02-08T09:13:53.014Z,22.08
2023-02-08T09:16:54.098Z,21.17
2023-02-08T09:19:55.139Z,23.10
2023-02-08T09:22:56.923Z,19.40
2023-02-08T09:25:58.178Z,20.08
2023-02-08T09:28:59.797Z,20.77
2023-02-08T09:32:00.654Z,19.13
2023-02-08T09:35:02.534Z,16.92
2023-02-08T09:38:04.668Z,19.73
2023-02-08T09:41:42.867Z,19.83
2023-02-08T09:45:10.448Z,18.00
2023-02-08T09:48:32.852Z,18.40
2023-02-08T09:51:43.759Z,17.50
2023-02-08T09:54:57.046Z,22.45
2023-02-08T09:58:03.526Z,16.90
2023-02-08T10:01:07.749Z,17.60
2023-02-08T10:04:41.566Z,17.65
2023-02-08T10:07:43.946Z,17.60
2023-02-08T10:11:23.472Z,17.23
2023-02-08T10:15:03.415Z,16.88
2023-02-08T10:19:06.997Z,16.02
2023-02-08T10:22:34.762Z,13.68
2023-02-08T10:25:50.653Z,15.82
2023-02-08T10:29:12.367Z,18.70
2023-02-08T10:32:40.193Z,17.50
2023-02-08T10:35:48.997Z,16.10
2023-02-08T10:38:53.905Z,17.42
2023-02-08T10:41:55.417Z,18.55
2023-02-08T10:45:10.261Z,18.10
2023-02-08T10:48:45.033Z,15.07
2023-02-08T10:51:47.622Z,16.40
2023-02-08T10:54:48.505Z,18.05
2023-02-08T10:57:56.049Z,17.95
2023-02-08T11:00:58.676Z,15.10
2023-02-08T11:04:11.423Z,16.27
2023-02-08T11:07:21.596Z,18.83
2023-02-08T11:10:25.813Z,18.70
2023-02-08T11:13:51.492Z,16.13
2023-02-08T11:16:58.063Z,15.38
2023-02-08T11:20:00.402Z,15.45
2023-02-08T11:23:01.298Z,17.88
2023-02-08T11:26:39.686Z,14.82
2023-02-08T11:29:40.784Z,16.25
2023-02-08T11:32:48.676Z,17.83
2023-02-08T11:36:09.962Z,15.70
2023-02-08T11:39:26.801Z,16.42
2023-02-08T11:42:35.451Z,16.98
2023-02-08T11:45:37.556Z,16.38
2023-02-08T11:48:51.496Z,15.73
2023-02-08T11:51:53.504Z,16.95
2023-02-08T11:55:11.510Z,17.27
2023-02-08T11:58:12.672Z,13.60
2023-02-08T12:01:21.001Z,14.88
2023-02-08T12:04:22.365Z,15.48
2023-02-08T12:07:41.209Z,13.82
2023-02-08T12:11:01.694Z,16.50
2023-02-08T12:14:27.676Z,16.85
2023-02-08T12:17:52.248Z,24.70
2023-02-08T12:21:22.954Z,17.40
2023-02-08T12:25:09.531Z,16.52
2023-02-08T12:28:51.129Z,14.27
2023-02-08T12:32:22.925Z,20.85
2023-02-08T12:36:05.394Z,15.75
2023-02-08T12:39:57.322Z,14.30
2023-02-08T12:43:44.152Z,18.05
2023-02-08T12:47:26.102Z,19.80
2023-02-08T12:50:47.959Z,20.80
2023-02-08T12:53:57.865Z,23.75
2023-02-08T12:57:02.857Z,18.98
2023-02-08T13:00:32.456Z,25.20
2023-02-08T13:04:00.095Z,21.77
2023-02-08T13:07:22.155Z,20.88
2023-02-08T13:10:42.138Z,18.23
2023-02-08T13:13:48.219Z,20.23
2023-02-08T13:16:55.842Z,19.70
2023-02-08T13:20:20.634Z,18.10
2023-02-08T13:23:46.821Z,20.60
2023-02-08T13:26:52.980Z,23.77
2023-02-08T13:29:54.297Z,22.73
2023-02-08T13:32:56.575Z,20.08
2023-02-08T13:35:58.993Z,20.77
2023-02-08T13:39:04.698Z,21.27
2023-02-08T13:42:19.101Z,23.67
2023-02-08T13:45:34.434Z,19.42
2023-02-08T13:48:52.602Z,15.75
2023-02-08T13:51:54.545Z,23.17
2023-02-08T13:55:30.926Z,20.50
2023-02-08T13:58:49.914Z,17.43
2023-02-08T14:02:13.054Z,18.05
2023-02-08T14:05:45.241Z,20.17
2023-02-08T14:09:28.742Z,20.45
2023-02-08T14:13:02.467Z,21.83
2023-02-08T14:16:27.262Z,21.75
2023-02-08T14:19:28.162Z,23.42
2023-02-08T14:22:39.063Z,19.58
2023-02-08T14:25:48.560Z,19.08
2023-02-08T14:29:00.113Z,24.98
2023-02-08T14:32:01.629Z,20.05
2023-02-08T14:35:20.911Z,18.92
2023-02-08T14:38:24.915Z,20.60
2023-02-08T14:42:04.052Z,20.58
2023-02-08T14:45:06.158Z,18.75
2023-02-08T14:48:31.898Z,20.83
2023-02-08T14:51:37.194Z,18.88
2023-02-08T14:54:53.263Z,19.88
2023-02-08T14:57:59.121Z,20.65
2023-02-08T15:01:20.589Z,22.67
2023-02-08T15:04:22.093Z,32.47
2023-02-08T15:07:57.970Z,21.95
2023-02-08T15:10:59.279Z,18.50
2023-02-08T15:14:05.071Z,17.23
2023-02-08T15:17:07.578Z,23.83
2023-02-08T15:20:39.382Z,22.70
2023-02-08T15:23:40.165Z,19.35
2023-02-08T15:26:53.404Z,23.35
2023-02-08T15:29:54.480Z,21.95
2023-02-08T15:32:56.714Z,21.65
2023-02-08T15:36:06.756Z,22.08
2023-02-08T15:39:35.940Z,22.70
2023-02-08T15:42:44.300Z,20.90
2023-02-08T15:46:00.064Z,20.33
2023-02-08T15:49:01.808Z,21.30
2023-02-08T15:52:05.067Z,22.05
2023-02-08T15:55:15.933Z,22.25
2023-02-08T15:58:37.776Z,26.00
2023-02-08T16:01:38.713Z,29.02
2023-02-08T16:04:46.928Z,21.15
2023-02-08T16:07:48.966Z,35.78
2023-02-08T16:10:58.918Z,28.95
2023-02-08T16:14:04.247Z,23.65
2023-02-08T16:17:05.365Z,23.52
2023-02-08T16:20:34.336Z,26.02
2023-02-08T16:23:39.031Z,24.60
2023-02-08T16:26:57.175Z,28.98
2023-02-08T16:29:59.601Z,30.10
2023-02-08T16:33:08.278Z,29.42
2023-02-08T16:36:25.544Z,30.23
2023-02-08T16:39:50.596Z,26.50
2023-02-08T16:42:51.417Z,30.38
2023-02-08T16:46:11.003Z,25.50
2023-02-08T16:49:11.845Z,30.05
2023-02-08T16:52:13.250Z,31.10
2023-02-08T16:55:22.429Z,28.05
2023-02-08T16:58:24.860Z,28.35
2023-02-08T17:01:27.062Z,28.80
2023-02-08T17:04:30.659Z,27.63
2023-02-08T17:07:32.279Z,29.77
2023-02-08T17:10:34.650Z,23.35
2023-02-08T17:13:35.594Z,31.08
2023-02-08T17:16:38.793Z,28.27
2023-02-08T17:19:39.809Z,34.13
2023-02-08T17:22:40.639Z,37.55
2023-02-08T17:25:42.827Z,36.97
2023-02-08T17:28:44.922Z,43.25
2023-02-08T17:31:46.020Z,37.35
2023-02-08T17:34:47.156Z,39.70
2023-02-08T17:37:50.525Z,37.13
2023-02-08T17:40:51.891Z,40.88
2023-02-08T17:43:55.902Z,37.40
2023-02-08T17:46:56.830Z,37.67
2023-02-08T17:49:58.129Z,47.50
2023-02-08T17:52:58.951Z,41.35
2023-02-08T17:55:59.806Z,38.70
2023-02-08T17:59:05.583Z,36.80
2023-02-08T18:02:07.561Z,35.20
2023-02-08T18:05:08.808Z,37.53
2023-02-08T18:08:09.513Z,37.38
2023-02-08T18:11:24.308Z,43.35
2023-02-08T18:14:25.353Z,40.53
2023-02-08T18:17:27.131Z,45.38
2023-02-08T18:20:28.499Z,39.42
2023-02-08T18:23:29.446Z,38.95
2023-02-08T18:26:33.627Z,37.03
2023-02-08T18:29:34.533Z,35.42
2023-02-08T18:32:35.384Z,40.42
2023-02-08T18:35:37.734Z,36.00
2023-02-08T18:38:41.363Z,35.88
2023-02-08T18:41:43.530Z,32.05
2023-02-08T18:44:44.419Z,35.90
2023-02-08T18:47:45.342Z,35.22
2023-02-08T18:50:54.752Z,42.00
2023-02-08T18:53:56.232Z,39.83
2023-02-08T18:56:57.667Z,33.50
2023-02-08T18:59:58.582Z,32.45
2023-02-08T19:02:59.857Z,35.60
2023-02-08T19:06:13.905Z,35.15
2023-02-08T19:09:14.582Z,31.55
2023-02-08T19:12:15.814Z,35.83
2023-02-08T19:15:16.839Z,32.03
2023-02-08T19:18:17.669Z,37.17
2023-02-08T19:21:20.128Z,38.92
2023-02-08T19:24:21.066Z,38.13
2023-02-08T19:27:21.870Z,36.25
2023-02-08T19:30:23.158Z,36.78
2023-02-08T19:33:24.072Z,36.47
2023-02-08T19:36:41.193Z,30.08
2023-02-08T19:39:42.350Z,30.58
2023-02-08T19:42:44.644Z,32.25
2023-02-08T19:45:45.968Z,35.95
2023-02-08T19:48:47.227Z,29.20
2023-02-08T19:51:48.408Z,36.47
2023-02-08T19:54:49.842Z,33.63
2023-02-08T19:57:50.797Z,35.15
2023-02-08T20:00:52.536Z,38.38
2023-02-08T20:03:54.529Z,40.85
2023-02-08T20:06:55.346Z,34.50
2023-02-08T20:09:56.233Z,36.22
2023-02-08T20:12:57.122Z,36.90
2023-02-08T20:15:59.939Z,37.28
2023-02-08T20:19:01.786Z,42.35
2023-02-08T20:22:03.374Z,35.33
2023-02-08T20:25:04.574Z,39.90
2023-02-08T20:28:05.806Z,45.13
2023-02-08T20:31:13.262Z,43.00
2023-02-08T20:37:20.803Z,31.55
2023-02-08T20:40:22.525Z,36.50
2023-02-08T20:43:23.384Z,43.03
2023-02-08T20:46:30.837Z,43.65
2023-02-08T20:49:32.554Z,40.63
2023-02-08T20:52:34.510Z,42.47
2023-02-08T20:55:35.268Z,39.53
2023-02-08T20:58:37.139Z,45.55
2023-02-08T21:01:38.736Z,44.90
2023-02-08T21:04:39.702Z,43.97
2023-02-08T21:07:41.240Z,42.08
2023-02-08T21:10:42.384Z,41.03
2023-02-08T21:13:43.547Z,40.80
2023-02-08T21:16:54.022Z,46.30
2023-02-08T21:19:54.991Z,42.67
2023-02-08T21:22:55.792Z,46.72
2023-02-08T21:25:58.867Z,46.90
2023-02-08T21:29:03.311Z,48.13
2023-02-08T21:32:04.658Z,53.53
2023-02-08T21:35:06.554Z,53.78
2023-02-08T21:38:07.923Z,55.30
2023-02-08T21:41:23.124Z,51.58
2023-02-08T21:44:24.281Z,90.50
2023-02-08T21:47:25.567Z,61.05
2023-02-08T21:50:46.977Z,53.95
2023-02-08T21:54:06.417Z,60.85
2023-02-08T21:57:19.317Z,51.88
2023-02-08T22:00:20.361Z,53.83
2023-02-08T22:03:21.635Z,60.10
2023-02-08T22:06:22.691Z,64.65
2023-02-08T22:09:23.832Z,68.22
2023-02-08T22:12:24.650Z,60.53
2023-02-08T22:15:30.402Z,53.15
2023-02-08T22:18:31.510Z,66.63
2023-02-08T22:21:33.275Z,60.75
2023-02-08T22:24:35.780Z,58.55
2023-02-08T22:27:39.268Z,51.80
2023-02-08T22:30:40.453Z,54.65
2023-02-08T22:33:42.701Z,53.60
2023-02-08T22:36:43.715Z,58.55
2023-02-08T22:39:44.976Z,56.92
2023-02-08T22:42:46.393Z,56.33
2023-02-08T22:46:00.762Z,56.05
2023-02-08T22:49:01.727Z,54.47
2023-02-08T22:52:07.547Z,62.97
2023-02-08T22:55:08.941Z,55.58
2023-02-08T22:58:10.015Z,57.10
2023-02-08T23:01:17.288Z,48.45
2023-02-08T23:04:18.366Z,50.88
2023-02-08T23:07:19.588Z,53.80
2023-02-08T23:10:20.582Z,53.20
2023-02-08T23:13:21.805Z,49.95
2023-02-08T23:16:22.698Z,61.70
2023-02-08T23:19:24.031Z,69.70
2023-02-08T23:22:24.801Z,60.97
2023-02-08T23:25:25.930Z,58.88
2023-02-08T23:28:27.198Z,57.22
2023-02-08T23:31:28.424Z,57.03
2023-02-08T23:34:29.634Z,58.88
2023-02-08T23:37:30.760Z,59.97
2023-02-08T23:40:32.016Z,61.60
2023-02-08T23:43:33.765Z,61.30
2023-02-08T23:46:34.869Z,71.20
2023-02-08T23:49:36.122Z,58.08
2023-02-08T23:52:37.736Z,59.17
2023-02-08T23:55:38.706Z,61.70
2023-02-08T23:58:39.834Z,61.75
